sensor_id;sensor_type;location;lat;lon;timestamp;P1;durP1;ratioP1;P2;durP2;ratioP2
71965;SDS011;59836;52.132;5.442;2022-12-01T00:01:16;32.20;;;15.30;;
71965;SDS011;59836;52.132;5.442;2022-12-01T00:03:43;31.80;;;14.68;;
71965;SDS011;59836;52.132;5.442;2022-12-01T00:06:27;32.53;;;15.47;;
71965;SDS011;59836;52.132;5.442;2022-12-01T00:08:54;32.53;;;13.40;;
71965;SDS011;59836;52.132;5.442;2022-12-01T00:11:44;35.58;;;14.75;;
71965;SDS011;59836;52.132;5.442;2022-12-01T00:14:17;32.72;;;14.15;;
71965;SDS011;59836;52.132;5.442;2022-12-01T00:17:02;33.10;;;14.23;;
71965;SDS011;59836;52.132;5.442;2022-12-01T00:19:32;37.60;;;14.43;;
71965;SDS011;59836;52.132;5.442;2022-12-01T00:25:15;34.88;;;14.27;;
71965;SDS011;59836;52.132;5.442;2022-12-01T00:27:50;30.60;;;13.40;;
71965;SDS011;59836;52.132;5.442;2022-12-01T00:30:26;35.13;;;14.45;;
71965;SDS011;59836;52.132;5.442;2022-12-01T00:32:52;32.73;;;13.60;;
71965;SDS011;59836;52.132;5.442;2022-12-01T00:38:30;30.92;;;14.98;;
71965;SDS011;59836;52.132;5.442;2022-12-01T00:40:57;28.70;;;13.25;;
71965;SDS011;59836;52.132;5.442;2022-12-01T00:46:34;31.90;;;13.80;;
71965;SDS011;59836;52.132;5.442;2022-12-01T00:49:00;32.30;;;13.88;;
71965;SDS011;59836;52.132;5.442;2022-12-01T00:51:26;32.42;;;13.73;;
71965;SDS011;59836;52.132;5.442;2022-12-01T00:53:56;32.00;;;14.25;;
71965;SDS011;59836;52.132;5.442;2022-12-01T00:59:32;33.80;;;14.03;;
71965;SDS011;59836;52.132;5.442;2022-12-01T01:02:03;31.08;;;14.25;;
71965;SDS011;59836;52.132;5.442;2022-12-01T01:08:07;27.35;;;13.45;;
71965;SDS011;59836;52.132;5.442;2022-12-01T01:10:45;29.70;;;13.23;;
71965;SDS011;59836;52.132;5.442;2022-12-01T01:13:13;32.30;;;13.33;;
71965;SDS011;59836;52.132;5.442;2022-12-01T01:16:03;32.63;;;12.80;;
71965;SDS011;59836;52.132;5.442;2022-12-01T01:18:32;30.88;;;12.98;;
71965;SDS011;59836;52.132;5.442;2022-12-01T01:24:04;30.05;;;13.18;;
71965;SDS011;59836;52.132;5.442;2022-12-01T01:26:31;32.03;;;13.13;;
71965;SDS011;59836;52.132;5.442;2022-12-01T01:28:59;28.60;;;12.82;;
71965;SDS011;59836;52.132;5.442;2022-12-01T01:34:01;28.35;;;12.82;;
71965;SDS011;59836;52.132;5.442;2022-12-01T01:39:25;32.43;;;14.13;;
71965;SDS011;59836;52.132;5.442;2022-12-01T01:49:03;30.30;;;12.35;;
71965;SDS011;59836;52.132;5.442;2022-12-01T01:54:25;31.20;;;13.57;;
71965;SDS011;59836;52.132;5.442;2022-12-01T01:56:59;31.38;;;13.05;;
71965;SDS011;59836;52.132;5.442;2022-12-01T01:59:36;33.40;;;13.93;;
71965;SDS011;59836;52.132;5.442;2022-12-01T02:05:23;30.10;;;12.50;;
71965;SDS011;59836;52.132;5.442;2022-12-01T02:07:55;29.57;;;13.47;;
71965;SDS011;59836;52.132;5.442;2022-12-01T02:31:50;37.55;;;13.93;;
71965;SDS011;59836;52.132;5.442;2022-12-01T02:37:12;31.77;;;12.53;;
71965;SDS011;59836;52.132;5.442;2022-12-01T02:43:11;32.53;;;13.38;;
71965;SDS011;59836;52.132;5.442;2022-12-01T02:46:05;35.72;;;13.32;;
71965;SDS011;59836;52.132;5.442;2022-12-01T02:48:45;33.80;;;15.20;;
71965;SDS011;59836;52.132;5.442;2022-12-01T02:51:22;34.67;;;14.50;;
71965;SDS011;59836;52.132;5.442;2022-12-01T02:56:50;38.03;;;14.65;;
71965;SDS011;59836;52.132;5.442;2022-12-01T02:59:29;32.63;;;13.65;;
71965;SDS011;59836;52.132;5.442;2022-12-01T03:08:25;38.97;;;13.98;;
71965;SDS011;59836;52.132;5.442;2022-12-01T03:10:58;34.75;;;13.93;;
71965;SDS011;59836;52.132;5.442;2022-12-01T03:16:54;33.95;;;13.18;;
71965;SDS011;59836;52.132;5.442;2022-12-01T03:19:31;37.97;;;14.47;;
71965;SDS011;59836;52.132;5.442;2022-12-01T03:24:56;32.00;;;13.45;;
71965;SDS011;59836;52.132;5.442;2022-12-01T03:27:28;36.92;;;13.88;;
71965;SDS011;59836;52.132;5.442;2022-12-01T03:32:56;34.33;;;12.43;;
71965;SDS011;59836;52.132;5.442;2022-12-01T03:35:46;32.78;;;13.05;;
71965;SDS011;59836;52.132;5.442;2022-12-01T03:38:25;39.50;;;14.57;;
71965;SDS011;59836;52.132;5.442;2022-12-01T03:43:31;37.15;;;14.05;;
71965;SDS011;59836;52.132;5.442;2022-12-01T03:46:09;36.50;;;13.10;;
71965;SDS011;59836;52.132;5.442;2022-12-01T03:58:00;30.15;;;12.85;;
71965;SDS011;59836;52.132;5.442;2022-12-01T04:00:40;35.20;;;13.97;;
71965;SDS011;59836;52.132;5.442;2022-12-01T04:09:20;36.28;;;13.57;;
71965;SDS011;59836;52.132;5.442;2022-12-01T04:19:05;34.45;;;12.80;;
71965;SDS011;59836;52.132;5.442;2022-12-01T04:21:33;31.73;;;12.88;;
71965;SDS011;59836;52.132;5.442;2022-12-01T04:27:00;37.53;;;12.88;;
71965;SDS011;59836;52.132;5.442;2022-12-01T04:29:27;36.03;;;13.83;;
71965;SDS011;59836;52.132;5.442;2022-12-01T04:31:53;38.15;;;14.90;;
71965;SDS011;59836;52.132;5.442;2022-12-01T04:39:37;40.42;;;15.48;;
71965;SDS011;59836;52.132;5.442;2022-12-01T04:47:37;37.78;;;15.13;;
71965;SDS011;59836;52.132;5.442;2022-12-01T04:50:03;36.42;;;14.13;;
71965;SDS011;59836;52.132;5.442;2022-12-01T04:52:30;33.95;;;14.10;;
71965;SDS011;59836;52.132;5.442;2022-12-01T04:55:00;34.10;;;14.03;;
71965;SDS011;59836;52.132;5.442;2022-12-01T05:00:15;39.33;;;14.68;;
71965;SDS011;59836;52.132;5.442;2022-12-01T05:02:41;33.67;;;13.77;;
71965;SDS011;59836;52.132;5.442;2022-12-01T05:08:08;36.53;;;14.33;;
71965;SDS011;59836;52.132;5.442;2022-12-01T05:10:35;35.97;;;14.75;;
71965;SDS011;59836;52.132;5.442;2022-12-01T05:13:03;36.38;;;14.27;;
71965;SDS011;59836;52.132;5.442;2022-12-01T05:28:40;34.50;;;12.65;;
71965;SDS011;59836;52.132;5.442;2022-12-01T05:31:07;34.38;;;13.05;;
71965;SDS011;59836;52.132;5.442;2022-12-01T05:33:47;33.30;;;13.10;;
71965;SDS011;59836;52.132;5.442;2022-12-01T05:36:14;35.17;;;13.80;;
71965;SDS011;59836;52.132;5.442;2022-12-01T05:38:40;36.03;;;14.07;;
71965;SDS011;59836;52.132;5.442;2022-12-01T05:41:07;37.97;;;14.20;;
71965;SDS011;59836;52.132;5.442;2022-12-01T05:43:34;35.35;;;12.90;;
71965;SDS011;59836;52.132;5.442;2022-12-01T05:46:00;32.22;;;13.88;;
71965;SDS011;59836;52.132;5.442;2022-12-01T05:48:41;36.27;;;13.73;;
71965;SDS011;59836;52.132;5.442;2022-12-01T05:54:24;38.45;;;14.75;;
71965;SDS011;59836;52.132;5.442;2022-12-01T05:59:55;42.30;;;14.23;;
71965;SDS011;59836;52.132;5.442;2022-12-01T06:05:27;37.47;;;14.05;;
71965;SDS011;59836;52.132;5.442;2022-12-01T06:08:09;38.53;;;13.88;;
71965;SDS011;59836;52.132;5.442;2022-12-01T06:10:52;41.35;;;13.60;;
71965;SDS011;59836;52.132;5.442;2022-12-01T06:13:26;35.35;;;13.90;;
71965;SDS011;59836;52.132;5.442;2022-12-01T06:18:58;36.50;;;13.20;;
71965;SDS011;59836;52.132;5.442;2022-12-01T06:24:21;30.27;;;12.98;;
71965;SDS011;59836;52.132;5.442;2022-12-01T06:26:56;35.42;;;14.23;;
71965;SDS011;59836;52.132;5.442;2022-12-01T06:29:22;35.10;;;13.67;;
71965;SDS011;59836;52.132;5.442;2022-12-01T06:31:50;36.30;;;14.20;;
71965;SDS011;59836;52.132;5.442;2022-12-01T06:34:29;31.75;;;12.43;;
71965;SDS011;59836;52.132;5.442;2022-12-01T06:40:12;34.75;;;12.75;;
71965;SDS011;59836;52.132;5.442;2022-12-01T06:42:40;31.00;;;12.60;;
71965;SDS011;59836;52.132;5.442;2022-12-01T06:48:29;32.83;;;12.25;;
71965;SDS011;59836;52.132;5.442;2022-12-01T06:51:04;32.95;;;11.13;;
71965;SDS011;59836;52.132;5.442;2022-12-01T06:53:46;32.13;;;12.48;;
71965;SDS011;59836;52.132;5.442;2022-12-01T06:59:19;31.85;;;12.75;;
71965;SDS011;59836;52.132;5.442;2022-12-01T07:01:55;40.22;;;14.48;;
71965;SDS011;59836;52.132;5.442;2022-12-01T07:04:23;32.78;;;13.65;;
71965;SDS011;59836;52.132;5.442;2022-12-01T07:06:49;37.15;;;12.80;;
71965;SDS011;59836;52.132;5.442;2022-12-01T07:12:14;39.83;;;13.70;;
71965;SDS011;59836;52.132;5.442;2022-12-01T07:17:46;36.10;;;13.75;;
71965;SDS011;59836;52.132;5.442;2022-12-01T07:25:58;36.28;;;13.45;;
71965;SDS011;59836;52.132;5.442;2022-12-01T07:28:25;38.60;;;13.98;;
71965;SDS011;59836;52.132;5.442;2022-12-01T07:34:05;30.17;;;12.50;;
71965;SDS011;59836;52.132;5.442;2022-12-01T07:39:06;36.58;;;13.60;;
71965;SDS011;59836;52.132;5.442;2022-12-01T07:41:34;41.03;;;14.88;;
71965;SDS011;59836;52.132;5.442;2022-12-01T07:52:57;40.15;;;13.93;;
71965;SDS011;59836;52.132;5.442;2022-12-01T07:55:24;38.88;;;14.30;;
71965;SDS011;59836;52.132;5.442;2022-12-01T07:58:00;41.28;;;14.70;;
71965;SDS011;59836;52.132;5.442;2022-12-01T08:00:28;40.30;;;15.32;;
71965;SDS011;59836;52.132;5.442;2022-12-01T08:02:54;44.27;;;14.03;;
71965;SDS011;59836;52.132;5.442;2022-12-01T08:05:21;43.17;;;15.65;;
71965;SDS011;59836;52.132;5.442;2022-12-01T08:07:47;43.33;;;15.80;;
71965;SDS011;59836;52.132;5.442;2022-12-01T08:13:09;40.22;;;14.65;;
71965;SDS011;59836;52.132;5.442;2022-12-01T08:15:42;39.97;;;14.23;;
71965;SDS011;59836;52.132;5.442;2022-12-01T08:18:25;45.92;;;14.55;;
71965;SDS011;59836;52.132;5.442;2022-12-01T08:21:00;43.60;;;15.52;;
71965;SDS011;59836;52.132;5.442;2022-12-01T08:23:36;41.13;;;14.85;;
71965;SDS011;59836;52.132;5.442;2022-12-01T08:26:03;42.13;;;15.10;;
71965;SDS011;59836;52.132;5.442;2022-12-01T08:28:44;48.07;;;15.33;;
71965;SDS011;59836;52.132;5.442;2022-12-01T08:37:03;45.92;;;17.00;;
71965;SDS011;59836;52.132;5.442;2022-12-01T08:39:29;43.15;;;15.95;;
71965;SDS011;59836;52.132;5.442;2022-12-01T08:42:02;41.03;;;14.83;;
71965;SDS011;59836;52.132;5.442;2022-12-01T08:44:30;48.78;;;16.33;;
71965;SDS011;59836;52.132;5.442;2022-12-01T08:46:57;43.20;;;16.60;;
71965;SDS011;59836;52.132;5.442;2022-12-01T08:49:23;46.78;;;16.02;;
71965;SDS011;59836;52.132;5.442;2022-12-01T08:51:51;45.78;;;16.35;;
71965;SDS011;59836;52.132;5.442;2022-12-01T08:54:17;48.80;;;16.43;;
71965;SDS011;59836;52.132;5.442;2022-12-01T08:56:44;52.47;;;17.48;;
71965;SDS011;59836;52.132;5.442;2022-12-01T08:59:11;51.35;;;16.95;;
71965;SDS011;59836;52.132;5.442;2022-12-01T09:01:38;50.75;;;16.83;;
71965;SDS011;59836;52.132;5.442;2022-12-01T09:04:23;45.63;;;16.95;;
71965;SDS011;59836;52.132;5.442;2022-12-01T09:06:52;49.93;;;16.80;;
71965;SDS011;59836;52.132;5.442;2022-12-01T09:09:25;52.47;;;18.67;;
71965;SDS011;59836;52.132;5.442;2022-12-01T09:12:02;49.17;;;18.30;;
71965;SDS011;59836;52.132;5.442;2022-12-01T09:14:28;50.55;;;16.85;;
71965;SDS011;59836;52.132;5.442;2022-12-01T09:16:54;49.35;;;17.65;;
71965;SDS011;59836;52.132;5.442;2022-12-01T09:19:21;50.57;;;16.70;;
71965;SDS011;59836;52.132;5.442;2022-12-01T09:21:50;51.72;;;18.23;;
71965;SDS011;59836;52.132;5.442;2022-12-01T09:24:17;47.72;;;17.85;;
71965;SDS011;59836;52.132;5.442;2022-12-01T09:26:44;50.42;;;17.20;;
71965;SDS011;59836;52.132;5.442;2022-12-01T09:29:11;47.70;;;18.05;;
71965;SDS011;59836;52.132;5.442;2022-12-01T09:31:38;50.73;;;18.37;;
71965;SDS011;59836;52.132;5.442;2022-12-01T09:34:07;51.78;;;17.30;;
71965;SDS011;59836;52.132;5.442;2022-12-01T09:36:37;47.58;;;17.23;;
71965;SDS011;59836;52.132;5.442;2022-12-01T09:39:07;48.63;;;18.05;;
71965;SDS011;59836;52.132;5.442;2022-12-01T09:46:41;46.47;;;16.73;;
71965;SDS011;59836;52.132;5.442;2022-12-01T09:49:14;49.47;;;17.77;;
71965;SDS011;59836;52.132;5.442;2022-12-01T09:51:43;48.70;;;17.58;;
71965;SDS011;59836;52.132;5.442;2022-12-01T09:54:11;47.20;;;16.75;;
71965;SDS011;59836;52.132;5.442;2022-12-01T09:56:46;45.13;;;16.83;;
71965;SDS011;59836;52.132;5.442;2022-12-01T10:04:58;45.50;;;16.23;;
71965;SDS011;59836;52.132;5.442;2022-12-01T10:07:37;51.67;;;16.98;;
71965;SDS011;59836;52.132;5.442;2022-12-01T10:10:12;51.40;;;16.87;;
71965;SDS011;59836;52.132;5.442;2022-12-01T10:13:10;50.70;;;18.80;;
71965;SDS011;59836;52.132;5.442;2022-12-01T10:18:41;44.15;;;16.38;;
71965;SDS011;59836;52.132;5.442;2022-12-01T10:36:17;44.92;;;18.10;;
71965;SDS011;59836;52.132;5.442;2022-12-01T10:41:34;49.85;;;18.33;;
71965;SDS011;59836;52.132;5.442;2022-12-01T10:49:14;50.08;;;18.63;;
71965;SDS011;59836;52.132;5.442;2022-12-01T10:57:06;46.75;;;18.83;;
71965;SDS011;59836;52.132;5.442;2022-12-01T10:59:48;49.95;;;16.77;;
71965;SDS011;59836;52.132;5.442;2022-12-01T11:02:19;51.45;;;18.58;;
71965;SDS011;59836;52.132;5.442;2022-12-01T11:04:52;45.53;;;17.63;;
71965;SDS011;59836;52.132;5.442;2022-12-01T11:16:01;43.38;;;17.23;;
71965;SDS011;59836;52.132;5.442;2022-12-01T11:18:41;49.33;;;17.47;;
71965;SDS011;59836;52.132;5.442;2022-12-01T11:21:09;46.70;;;16.88;;
71965;SDS011;59836;52.132;5.442;2022-12-01T11:23:45;50.47;;;18.17;;
71965;SDS011;59836;52.132;5.442;2022-12-01T11:29:28;42.30;;;17.67;;
71965;SDS011;59836;52.132;5.442;2022-12-01T11:31:57;39.13;;;15.67;;
71965;SDS011;59836;52.132;5.442;2022-12-01T11:34:45;48.30;;;17.17;;
71965;SDS011;59836;52.132;5.442;2022-12-01T11:48:23;46.22;;;17.50;;
71965;SDS011;59836;52.132;5.442;2022-12-01T11:53:49;41.10;;;15.10;;
71965;SDS011;59836;52.132;5.442;2022-12-01T11:59:29;37.57;;;14.70;;
71965;SDS011;59836;52.132;5.442;2022-12-01T12:07:32;36.15;;;14.95;;
71965;SDS011;59836;52.132;5.442;2022-12-01T12:23:32;38.80;;;15.30;;
71965;SDS011;59836;52.132;5.442;2022-12-01T12:26:18;39.72;;;15.48;;
71965;SDS011;59836;52.132;5.442;2022-12-01T12:29:12;40.93;;;16.73;;
71965;SDS011;59836;52.132;5.442;2022-12-01T12:31:58;40.05;;;15.38;;
71965;SDS011;59836;52.132;5.442;2022-12-01T12:40:39;40.65;;;15.80;;
71965;SDS011;59836;52.132;5.442;2022-12-01T12:52:24;34.95;;;15.10;;
71965;SDS011;59836;52.132;5.442;2022-12-01T13:09:58;34.85;;;15.18;;
71965;SDS011;59836;52.132;5.442;2022-12-01T13:15:24;40.75;;;15.82;;
71965;SDS011;59836;52.132;5.442;2022-12-01T13:17:56;39.70;;;16.02;;
71965;SDS011;59836;52.132;5.442;2022-12-01T13:20:29;38.30;;;15.02;;
71965;SDS011;59836;52.132;5.442;2022-12-01T13:23:11;34.40;;;15.00;;
71965;SDS011;59836;52.132;5.442;2022-12-01T13:25:57;37.57;;;16.13;;
71965;SDS011;59836;52.132;5.442;2022-12-01T13:28:27;36.45;;;14.80;;
71965;SDS011;59836;52.132;5.442;2022-12-01T13:31:11;41.03;;;16.25;;
71965;SDS011;59836;52.132;5.442;2022-12-01T13:36:40;36.95;;;15.68;;
71965;SDS011;59836;52.132;5.442;2022-12-01T13:51:06;34.78;;;14.52;;
71965;SDS011;59836;52.132;5.442;2022-12-01T13:57:15;35.92;;;14.32;;
71965;SDS011;59836;52.132;5.442;2022-12-01T14:02:25;37.47;;;14.68;;
71965;SDS011;59836;52.132;5.442;2022-12-01T14:04:53;32.97;;;14.50;;
71965;SDS011;59836;52.132;5.442;2022-12-01T14:07:21;36.40;;;15.10;;
71965;SDS011;59836;52.132;5.442;2022-12-01T14:09:57;33.22;;;13.98;;
71965;SDS011;59836;52.132;5.442;2022-12-01T14:12:48;33.33;;;14.02;;
71965;SDS011;59836;52.132;5.442;2022-12-01T14:15:26;35.20;;;14.65;;
71965;SDS011;59836;52.132;5.442;2022-12-01T14:18:04;33.58;;;14.88;;
71965;SDS011;59836;52.132;5.442;2022-12-01T14:20:47;35.03;;;14.57;;
71965;SDS011;59836;52.132;5.442;2022-12-01T14:23:33;41.63;;;15.63;;
71965;SDS011;59836;52.132;5.442;2022-12-01T14:32:21;37.05;;;15.23;;
71965;SDS011;59836;52.132;5.442;2022-12-01T14:34:51;36.90;;;14.57;;
71965;SDS011;59836;52.132;5.442;2022-12-01T14:37:20;33.58;;;14.45;;
71965;SDS011;59836;52.132;5.442;2022-12-01T14:48:33;36.47;;;14.63;;
71965;SDS011;59836;52.132;5.442;2022-12-01T14:57:08;31.92;;;13.93;;
71965;SDS011;59836;52.132;5.442;2022-12-01T14:59:42;30.27;;;13.60;;
71965;SDS011;59836;52.132;5.442;2022-12-01T15:02:15;32.27;;;13.80;;
71965;SDS011;59836;52.132;5.442;2022-12-01T15:07:41;29.00;;;13.23;;
71965;SDS011;59836;52.132;5.442;2022-12-01T15:16:15;30.10;;;13.07;;
71965;SDS011;59836;52.132;5.442;2022-12-01T15:18:43;28.52;;;12.20;;
71965;SDS011;59836;52.132;5.442;2022-12-01T15:24:26;30.45;;;12.27;;
71965;SDS011;59836;52.132;5.442;2022-12-01T15:26:57;30.02;;;13.02;;
71965;SDS011;59836;52.132;5.442;2022-12-01T15:29:30;28.70;;;12.33;;
71965;SDS011;59836;52.132;5.442;2022-12-01T15:32:05;31.98;;;13.98;;
71965;SDS011;59836;52.132;5.442;2022-12-01T15:37:39;31.95;;;13.40;;
71965;SDS011;59836;52.132;5.442;2022-12-01T15:40:07;30.30;;;12.93;;
71965;SDS011;59836;52.132;5.442;2022-12-01T15:43:13;29.80;;;13.73;;
71965;SDS011;59836;52.132;5.442;2022-12-01T15:52:08;31.95;;;13.68;;
71965;SDS011;59836;52.132;5.442;2022-12-01T15:54:36;29.23;;;13.70;;
71965;SDS011;59836;52.132;5.442;2022-12-01T16:02:53;29.92;;;13.32;;
71965;SDS011;59836;52.132;5.442;2022-12-01T16:05:26;29.75;;;12.77;;
71965;SDS011;59836;52.132;5.442;2022-12-01T16:11:14;31.73;;;13.83;;
71965;SDS011;59836;52.132;5.442;2022-12-01T16:25:47;30.10;;;14.10;;
71965;SDS011;59836;52.132;5.442;2022-12-01T16:30:48;33.30;;;15.05;;
71965;SDS011;59836;52.132;5.442;2022-12-01T16:42:22;32.47;;;13.98;;
71965;SDS011;59836;52.132;5.442;2022-12-01T16:44:50;29.33;;;14.38;;
71965;SDS011;59836;52.132;5.442;2022-12-01T16:47:22;33.22;;;13.77;;
71965;SDS011;59836;52.132;5.442;2022-12-01T16:49:50;35.47;;;15.70;;
71965;SDS011;59836;52.132;5.442;2022-12-01T16:57:59;44.22;;;18.10;;
71965;SDS011;59836;52.132;5.442;2022-12-01T17:00:31;38.83;;;17.58;;
71965;SDS011;59836;52.132;5.442;2022-12-01T17:03:09;44.33;;;18.40;;
71965;SDS011;59836;52.132;5.442;2022-12-01T17:05:38;37.77;;;18.10;;
71965;SDS011;59836;52.132;5.442;2022-12-01T17:08:05;38.38;;;17.75;;
71965;SDS011;59836;52.132;5.442;2022-12-01T17:10:32;36.60;;;17.63;;
71965;SDS011;59836;52.132;5.442;2022-12-01T17:12:58;41.47;;;18.45;;
71965;SDS011;59836;52.132;5.442;2022-12-01T17:18:44;40.07;;;17.93;;
71965;SDS011;59836;52.132;5.442;2022-12-01T17:24:02;49.38;;;21.27;;
71965;SDS011;59836;52.132;5.442;2022-12-01T17:26:36;50.63;;;22.30;;
71965;SDS011;59836;52.132;5.442;2022-12-01T17:29:13;47.90;;;20.70;;
71965;SDS011;59836;52.132;5.442;2022-12-01T17:31:39;50.37;;;21.40;;
71965;SDS011;59836;52.132;5.442;2022-12-01T17:34:06;49.00;;;21.10;;
71965;SDS011;59836;52.132;5.442;2022-12-01T17:36:32;46.78;;;21.50;;
71965;SDS011;59836;52.132;5.442;2022-12-01T17:41:35;40.85;;;18.02;;
71965;SDS011;59836;52.132;5.442;2022-12-01T17:47:56;38.67;;;18.33;;
71965;SDS011;59836;52.132;5.442;2022-12-01T17:54:12;37.60;;;16.52;;
71965;SDS011;59836;52.132;5.442;2022-12-01T18:11:29;36.17;;;17.40;;
71965;SDS011;59836;52.132;5.442;2022-12-01T18:14:09;39.83;;;18.20;;
71965;SDS011;59836;52.132;5.442;2022-12-01T18:16:35;35.88;;;16.83;;
71965;SDS011;59836;52.132;5.442;2022-12-01T18:19:03;36.70;;;17.27;;
71965;SDS011;59836;52.132;5.442;2022-12-01T18:21:29;37.13;;;16.40;;
71965;SDS011;59836;52.132;5.442;2022-12-01T18:23:57;39.63;;;18.98;;
71965;SDS011;59836;52.132;5.442;2022-12-01T18:29:48;41.58;;;20.35;;
71965;SDS011;59836;52.132;5.442;2022-12-01T18:32:29;43.72;;;21.83;;
71965;SDS011;59836;52.132;5.442;2022-12-01T18:40:29;39.57;;;20.17;;
71965;SDS011;59836;52.132;5.442;2022-12-01T18:45:42;42.53;;;19.67;;
71965;SDS011;59836;52.132;5.442;2022-12-01T18:51:53;35.65;;;16.65;;
71965;SDS011;59836;52.132;5.442;2022-12-01T18:54:19;34.50;;;16.40;;
71965;SDS011;59836;52.132;5.442;2022-12-01T18:59:44;38.80;;;17.60;;
71965;SDS011;59836;52.132;5.442;2022-12-01T19:02:20;34.60;;;15.82;;
71965;SDS011;59836;52.132;5.442;2022-12-01T19:04:47;31.40;;;15.10;;
71965;SDS011;59836;52.132;5.442;2022-12-01T19:07:15;36.30;;;15.90;;
71965;SDS011;59836;52.132;5.442;2022-12-01T19:12:28;36.13;;;16.90;;
71965;SDS011;59836;52.132;5.442;2022-12-01T19:14:54;35.03;;;17.58;;
71965;SDS011;59836;52.132;5.442;2022-12-01T19:17:29;34.22;;;16.42;;
71965;SDS011;59836;52.132;5.442;2022-12-01T19:19:57;38.83;;;16.57;;
71965;SDS011;59836;52.132;5.442;2022-12-01T19:22:27;37.83;;;18.40;;
71965;SDS011;59836;52.132;5.442;2022-12-01T19:24:53;37.67;;;18.20;;
71965;SDS011;59836;52.132;5.442;2022-12-01T19:27:20;40.75;;;17.75;;
71965;SDS011;59836;52.132;5.442;2022-12-01T19:29:47;40.65;;;18.67;;
71965;SDS011;59836;52.132;5.442;2022-12-01T19:32:14;37.03;;;17.43;;
71965;SDS011;59836;52.132;5.442;2022-12-01T19:34:58;38.42;;;17.90;;
71965;SDS011;59836;52.132;5.442;2022-12-01T19:37:29;39.08;;;17.92;;
71965;SDS011;59836;52.132;5.442;2022-12-01T19:40:01;36.92;;;16.33;;
71965;SDS011;59836;52.132;5.442;2022-12-01T19:42:33;38.78;;;17.90;;
71965;SDS011;59836;52.132;5.442;2022-12-01T19:47:46;36.45;;;17.05;;
71965;SDS011;59836;52.132;5.442;2022-12-01T19:50:14;39.30;;;17.80;;
71965;SDS011;59836;52.132;5.442;2022-12-01T19:52:50;42.38;;;17.90;;
71965;SDS011;59836;52.132;5.442;2022-12-01T19:55:16;40.20;;;16.83;;
71965;SDS011;59836;52.132;5.442;2022-12-01T19:57:43;41.87;;;18.30;;
71965;SDS011;59836;52.132;5.442;2022-12-01T20:00:09;41.42;;;17.20;;
71965;SDS011;59836;52.132;5.442;2022-12-01T20:02:36;40.63;;;18.27;;
71965;SDS011;59836;52.132;5.442;2022-12-01T20:05:20;36.40;;;15.88;;
71965;SDS011;59836;52.132;5.442;2022-12-01T20:07:47;37.50;;;15.98;;
71965;SDS011;59836;52.132;5.442;2022-12-01T20:10:13;39.33;;;15.67;;
71965;SDS011;59836;52.132;5.442;2022-12-01T20:12:48;38.03;;;16.02;;
71965;SDS011;59836;52.132;5.442;2022-12-01T20:15:15;39.05;;;17.10;;
71965;SDS011;59836;52.132;5.442;2022-12-01T20:17:54;38.50;;;15.95;;
71965;SDS011;59836;52.132;5.442;2022-12-01T20:20:21;42.13;;;18.00;;
71965;SDS011;59836;52.132;5.442;2022-12-01T20:22:47;43.67;;;17.23;;
71965;SDS011;59836;52.132;5.442;2022-12-01T20:25:14;40.08;;;16.60;;
71965;SDS011;59836;52.132;5.442;2022-12-01T20:27:40;37.22;;;17.77;;
71965;SDS011;59836;52.132;5.442;2022-12-01T20:30:07;43.97;;;17.77;;
71965;SDS011;59836;52.132;5.442;2022-12-01T20:32:34;49.65;;;19.08;;
71965;SDS011;59836;52.132;5.442;2022-12-01T20:35:01;41.43;;;17.17;;
71965;SDS011;59836;52.132;5.442;2022-12-01T20:37:27;38.88;;;16.48;;
71965;SDS011;59836;52.132;5.442;2022-12-01T20:39:54;43.13;;;17.63;;
71965;SDS011;59836;52.132;5.442;2022-12-01T20:42:20;41.78;;;17.98;;
71965;SDS011;59836;52.132;5.442;2022-12-01T20:44:49;45.45;;;19.25;;
71965;SDS011;59836;52.132;5.442;2022-12-01T20:47:16;38.70;;;16.47;;
71965;SDS011;59836;52.132;5.442;2022-12-01T20:49:46;41.90;;;17.85;;
71965;SDS011;59836;52.132;5.442;2022-12-01T20:52:12;39.92;;;17.58;;
71965;SDS011;59836;52.132;5.442;2022-12-01T20:54:39;40.50;;;18.08;;
71965;SDS011;59836;52.132;5.442;2022-12-01T20:57:07;40.72;;;19.63;;
71965;SDS011;59836;52.132;5.442;2022-12-01T20:59:34;42.23;;;17.20;;
71965;SDS011;59836;52.132;5.442;2022-12-01T21:02:00;43.05;;;17.90;;
71965;SDS011;59836;52.132;5.442;2022-12-01T21:04:26;40.75;;;16.98;;
71965;SDS011;59836;52.132;5.442;2022-12-01T21:06:54;39.70;;;16.52;;
71965;SDS011;59836;52.132;5.442;2022-12-01T21:09:21;34.00;;;16.17;;
71965;SDS011;59836;52.132;5.442;2022-12-01T21:11:48;38.70;;;17.20;;
71965;SDS011;59836;52.132;5.442;2022-12-01T21:17:37;40.28;;;17.13;;
71965;SDS011;59836;52.132;5.442;2022-12-01T21:23:07;37.83;;;16.33;;
71965;SDS011;59836;52.132;5.442;2022-12-01T21:25:36;38.70;;;16.63;;
71965;SDS011;59836;52.132;5.442;2022-12-01T21:28:20;40.85;;;15.85;;
71965;SDS011;59836;52.132;5.442;2022-12-01T21:30:57;36.05;;;15.65;;
71965;SDS011;59836;52.132;5.442;2022-12-01T21:33:30;40.42;;;16.00;;
71965;SDS011;59836;52.132;5.442;2022-12-01T21:36:00;40.85;;;17.50;;
71965;SDS011;59836;52.132;5.442;2022-12-01T21:38:31;42.63;;;16.87;;
71965;SDS011;59836;52.132;5.442;2022-12-01T21:40:58;38.75;;;16.55;;
71965;SDS011;59836;52.132;5.442;2022-12-01T21:43:35;40.28;;;16.83;;
71965;SDS011;59836;52.132;5.442;2022-12-01T21:46:07;43.15;;;17.20;;
71965;SDS011;59836;52.132;5.442;2022-12-01T21:48:46;43.40;;;17.13;;
71965;SDS011;59836;52.132;5.442;2022-12-01T21:51:21;39.37;;;18.20;;
71965;SDS011;59836;52.132;5.442;2022-12-01T21:53:49;37.33;;;15.38;;
71965;SDS011;59836;52.132;5.442;2022-12-01T21:56:21;38.72;;;16.60;;
71965;SDS011;59836;52.132;5.442;2022-12-01T21:58:50;37.65;;;15.13;;
71965;SDS011;59836;52.132;5.442;2022-12-01T22:01:25;37.10;;;15.20;;
71965;SDS011;59836;52.132;5.442;2022-12-01T22:06:56;38.58;;;16.42;;
71965;SDS011;59836;52.132;5.442;2022-12-01T22:09:28;39.80;;;17.45;;
71965;SDS011;59836;52.132;5.442;2022-12-01T22:12:21;38.03;;;15.70;;
71965;SDS011;59836;52.132;5.442;2022-12-01T22:14:52;41.53;;;17.38;;
71965;SDS011;59836;52.132;5.442;2022-12-01T22:17:25;38.50;;;16.20;;
71965;SDS011;59836;52.132;5.442;2022-12-01T22:22:52;39.90;;;16.13;;
71965;SDS011;59836;52.132;5.442;2022-12-01T22:27:52;36.25;;;16.20;;
71965;SDS011;59836;52.132;5.442;2022-12-01T22:30:19;45.63;;;17.40;;
71965;SDS011;59836;52.132;5.442;2022-12-01T22:36:29;39.85;;;16.20;;
71965;SDS011;59836;52.132;5.442;2022-12-01T22:38:56;40.40;;;15.30;;
71965;SDS011;59836;52.132;5.442;2022-12-01T22:41:23;45.17;;;16.75;;
71965;SDS011;59836;52.132;5.442;2022-12-01T22:43:55;35.60;;;15.63;;
71965;SDS011;59836;52.132;5.442;2022-12-01T22:46:27;41.85;;;15.93;;
71965;SDS011;59836;52.132;5.442;2022-12-01T22:49:38;38.35;;;16.73;;
71965;SDS011;59836;52.132;5.442;2022-12-01T22:51:57;45.75;;;17.30;;
71965;SDS011;59836;52.132;5.442;2022-12-01T22:54:27;42.72;;;16.60;;
71965;SDS011;59836;52.132;5.442;2022-12-01T22:57:01;45.17;;;17.30;;
71965;SDS011;59836;52.132;5.442;2022-12-01T22:59:37;46.53;;;18.27;;
71965;SDS011;59836;52.132;5.442;2022-12-01T23:05:55;47.75;;;18.10;;
71965;SDS011;59836;52.132;5.442;2022-12-01T23:11:29;46.93;;;17.90;;
71965;SDS011;59836;52.132;5.442;2022-12-01T23:14:02;44.55;;;18.45;;